Time;durP1;ratioP1;P1;durP2;ratioP2;P2;SDS_P1;SDS_P2;PMS_P1;PMS_P2;Temp;Humidity;BMP_temperature;BMP_pressure;BME280_temperature;BME280_humidity;BME280_pressure;Samples;Min_cycle;Max_cycle;Signal;HPM_P1;HPM_P2
2022/05/31 00:01:54;;;;;;;1.95;0.38;;;20.50;44.10;19.70;101093.00;;;;5039851;28;20048;-66
2022/05/31 00:04:40;;;;;;;0.80;0.30;;;20.50;44.10;19.70;101096.00;;;;5038856;28;20048;-66
2022/05/31 00:07:26;;;;;;;0.55;0.30;;;20.50;44.20;19.70;101101.00;;;;5053340;28;20045;-65
2022/05/31 00:10:14;;;;;;;0.60;0.22;;;20.40;44.10;19.70;101095.00;;;;5051365;28;20449;-66
2022/05/31 00:13:00;;;;;;;0.25;0.25;;;20.50;44.10;19.70;101093.00;;;;5044207;28;20033;-66
2022/05/31 00:15:47;;;;;;;0.30;0.30;;;20.40;44.10;19.70;101102.00;;;;5038088;28;20098;-66
2022/05/31 00:18:33;;;;;;;0.32;0.30;;;20.40;44.10;19.70;101091.00;;;;5040949;28;20099;-65
2022/05/31 00:21:19;;;;;;;0.98;0.20;;;20.40;44.10;19.60;101085.00;;;;5046111;28;20037;-66
2022/05/31 00:24:07;;;;;;;3.17;0.30;;;20.40;44.10;19.60;101093.00;;;;5060214;28;20107;-65
2022/05/31 00:26:53;;;;;;;0.20;0.17;;;20.40;44.10;19.60;101093.00;;;;5030781;28;20051;-66
2022/05/31 00:29:39;;;;;;;0.50;0.32;;;20.40;44.10;19.60;101100.00;;;;5037605;28;20049;-65
2022/05/31 00:32:31;;;;;;;0.55;0.50;;;20.40;44.10;19.60;101096.00;;;;5039209;28;20048;-65
2022/05/31 00:35:23;;;;;;;0.32;0.30;;;20.40;44.20;19.60;101086.00;;;;5045787;28;20052;-66
2022/05/31 00:38:09;;;;;;;0.52;0.30;;;20.40;44.20;19.60;101078.00;;;;5026730;28;20072;-65
2022/05/31 00:41:23;;;;;;;1.85;0.30;;;20.40;44.10;19.60;101081.00;;;;5049819;28;20125;-66
2022/05/31 00:44:05;;;;;;;0.32;0.30;;;20.40;44.20;19.60;101084.00;;;;5042256;28;20035;-65
2022/05/31 00:47:02;;;;;;;0.28;0.20;;;20.40;44.20;19.60;101083.00;;;;5045707;28;20063;-65
2022/05/31 00:50:01;;;;;;;0.43;0.25;;;20.30;44.10;19.60;101081.00;;;;5066464;28;20044;-66
2022/05/31 00:52:50;;;;;;;1.05;0.40;;;20.30;44.10;19.50;101080.00;;;;5055176;28;20041;-65
2022/05/31 00:56:02;;;;;;;0.40;0.20;;;20.30;44.10;19.60;101073.00;;;;5063702;28;20048;-66
2022/05/31 00:59:05;;;;;;;0.20;0.20;;;20.30;44.20;19.50;101079.00;;;;5057097;28;20498;-65
2022/05/31 01:01:53;;;;;;;1.88;0.43;;;20.30;44.20;19.50;101070.00;;;;5040726;28;20036;-65
2022/05/31 01:04:43;;;;;;;0.45;0.40;;;20.30;44.20;19.50;101074.00;;;;5025149;28;20387;-65
2022/05/31 01:07:29;;;;;;;0.20;0.17;;;20.30;44.20;19.50;101072.00;;;;5035528;28;20069;-65
2022/05/31 01:10:15;;;;;;;1.58;0.40;;;20.30;44.20;19.50;101072.00;;;;5044135;28;20037;-66
2022/05/31 01:13:02;;;;;;;0.17;0.17;;;20.30;44.20;19.50;101070.00;;;;5036189;28;20041;-65
2022/05/31 01:15:48;;;;;;;0.32;0.30;;;20.30;44.20;19.50;101066.00;;;;5050029;28;20040;-65
2022/05/31 01:18:34;;;;;;;0.75;0.20;;;20.20;44.10;19.50;101070.00;;;;5039312;28;20045;-66
2022/05/31 01:21:20;;;;;;;0.45;0.30;;;20.20;44.10;19.50;101061.00;;;;5044059;28;20048;-66
2022/05/31 01:24:12;;;;;;;0.20;0.20;;;20.20;44.10;19.50;101066.00;;;;5041467;28;20044;-66
2022/05/31 01:27:11;;;;;;;0.80;0.30;;;20.20;44.10;19.50;101068.00;;;;5045865;28;20115;-66
2022/05/31 01:29:57;;;;;;;0.68;0.22;;;20.20;44.10;19.50;101071.00;;;;5051755;28;20062;-65
2022/05/31 01:33:13;;;;;;;0.60;0.30;;;20.20;44.10;19.40;101072.00;;;;5050195;28;20040;-66
2022/05/31 01:36:14;;;;;;;0.38;0.32;;;20.20;44.10;19.40;101068.00;;;;5053149;28;20068;-65
2022/05/31 01:39:07;;;;;;;0.65;0.30;;;20.20;44.10;19.40;101072.00;;;;5037271;28;21012;-65
2022/05/31 01:42:21;;;;;;;0.20;0.20;;;20.20;44.10;19.40;101076.00;;;;5045575;28;20036;-66
2022/05/31 01:45:14;;;;;;;0.60;0.30;;;20.20;44.10;19.40;101070.00;;;;5041332;28;20505;-66
2022/05/31 01:48:02;;;;;;;0.20;0.10;;;20.20;44.10;19.40;101063.00;;;;5043579;28;20068;-65
2022/05/31 01:50:48;;;;;;;0.20;0.20;;;20.20;44.10;19.40;101066.00;;;;5033692;28;20040;-65
2022/05/31 01:53:34;;;;;;;0.60;0.30;;;20.20;44.10;19.40;101065.00;;;;5046789;28;20429;-66
2022/05/31 01:56:21;;;;;;;0.30;0.25;;;20.20;44.10;19.40;101068.00;;;;5034430;28;20055;-65
2022/05/31 01:59:07;;;;;;;0.32;0.30;;;20.20;44.10;19.40;101062.00;;;;5044559;28;20037;-65
2022/05/31 02:01:54;;;;;;;0.10;0.10;;;20.20;44.00;19.40;101055.00;;;;5061921;28;20040;-66
2022/05/31 02:04:42;;;;;;;0.30;0.30;;;20.10;44.00;19.40;101061.00;;;;5055022;28;20402;-66
2022/05/31 02:07:29;;;;;;;0.30;0.30;;;20.10;44.70;19.40;101072.00;;;;5049952;28;20053;-66
2022/05/31 02:10:15;;;;;;;;;;;20.10;44.00;19.40;101059.00;;;;5048558;28;20080;-66
2022/05/31 02:13:01;;;;;;;0.63;0.20;;;20.20;44.00;19.40;101061.00;;;;5043596;28;19912;-65
2022/05/31 02:15:47;;;;;;;0.50;0.20;;;20.20;44.00;19.40;101062.00;;;;5047937;28;20413;-66
2022/05/31 02:21:38;;;;;;;2.17;0.43;;;20.20;44.00;19.30;101064.00;;;;5050168;28;20041;-65
2022/05/31 02:24:25;;;;;;;0.43;0.30;;;20.10;43.90;19.30;101056.00;;;;5055457;28;20099;-66
2022/05/31 02:27:11;;;;;;;1.92;0.20;;;20.10;43.90;19.30;101051.00;;;;5061128;28;20091;-65
2022/05/31 02:29:57;;;;;;;0.82;0.30;;;20.10;43.90;19.30;101063.00;;;;5041693;28;20517;-65
2022/05/31 02:32:43;;;;;;;0.77;0.30;;;20.10;43.90;19.30;101061.00;;;;5045060;28;20049;-65
2022/05/31 02:35:30;;;;;;;0.40;0.40;;;20.10;43.90;19.30;101055.00;;;;5044293;28;20384;-65
2022/05/31 02:38:16;;;;;;;0.55;0.30;;;20.10;43.90;19.30;101050.00;;;;5042262;28;20124;-66
2022/05/31 02:41:02;;;;;;;0.30;0.30;;;20.10;43.90;19.30;101053.00;;;;5052430;28;20032;-66
2022/05/31 02:43:49;;;;;;;0.30;0.30;;;20.10;43.90;19.30;101046.00;;;;5046787;28;20069;-65
2022/05/31 02:46:35;;;;;;;1.10;0.22;;;20.10;43.80;19.30;101042.00;;;;5023906;28;20128;-66
2022/05/31 02:49:21;;;;;;;0.28;0.20;;;20.10;43.80;19.30;101040.00;;;;5050679;28;20045;-65
2022/05/31 02:52:08;;;;;;;1.00;0.35;;;20.10;43.90;19.30;101035.00;;;;5063860;28;20068;-66
2022/05/31 02:54:54;;;;;;;0.57;0.30;;;20.20;44.00;19.30;101048.00;;;;5043700;28;20052;-66
2022/05/31 02:57:40;;;;;;;0.65;0.20;;;20.00;43.90;19.30;101040.00;;;;5051032;28;20414;-65
2022/05/31 03:00:26;;;;;;;0.30;0.30;;;20.10;43.90;19.30;101044.00;;;;5041225;28;20057;-65
2022/05/31 03:03:12;;;;;;;0.68;0.43;;;20.10;43.90;19.30;101050.00;;;;5041389;28;20052;-66
2022/05/31 03:05:58;;;;;;;1.65;0.20;;;20.10;43.90;19.30;101051.00;;;;5046261;28;20809;-66
2022/05/31 03:08:44;;;;;;;0.85;0.30;;;20.00;43.80;19.30;101047.00;;;;5046867;28;20045;-66
2022/05/31 03:11:44;;;;;;;0.60;0.30;;;20.00;43.80;19.30;101030.00;;;;5048560;28;20044;-66
2022/05/31 03:14:49;;;;;;;1.27;0.52;;;20.00;43.80;19.30;101039.00;;;;5044397;28;20049;-66
2022/05/31 03:17:38;;;;;;;0.60;0.30;;;20.00;43.80;19.30;101036.00;;;;5055561;28;20561;-65
2022/05/31 03:20:28;;;;;;;0.50;0.30;;;20.00;43.80;19.30;101041.00;;;;5039709;28;20124;-66
2022/05/31 03:23:35;;;;;;;1.17;0.40;;;20.00;43.80;19.30;101032.00;;;;5055512;28;20049;-66
2022/05/31 03:26:21;;;;;;;1.55;0.30;;;20.00;43.80;19.20;101035.00;;;;5041769;28;20052;-66
2022/05/31 03:29:08;;;;;;;0.32;0.25;;;20.00;43.80;19.20;101039.00;;;;5050424;28;20123;-66
2022/05/31 03:31:54;;;;;;;1.02;0.50;;;20.00;43.80;19.30;101031.00;;;;5032261;28;20041;-66
2022/05/31 03:34:41;;;;;;;0.90;0.40;;;20.00;43.80;19.20;101036.00;;;;5041557;28;20103;-66
2022/05/31 03:37:27;;;;;;;0.80;0.35;;;20.10;43.80;19.20;101027.00;;;;5044205;28;20076;-66
2022/05/31 03:40:56;;;;;;;0.57;0.40;;;20.00;43.70;19.20;101033.00;;;;5043731;28;20041;-66
2022/05/31 03:43:19;;;;;;;0.40;0.20;;;20.10;43.80;19.20;101030.00;;;;5042826;28;20128;-66
2022/05/31 03:46:13;;;;;;;0.70;0.40;;;20.00;43.80;19.20;101028.00;;;;5054518;28;20052;-65
2022/05/31 03:48:59;;;;;;;0.75;0.40;;;20.00;43.80;19.20;101029.00;;;;5038524;28;20114;-65
2022/05/31 03:51:45;;;;;;;1.90;0.30;;;20.00;43.70;19.20;101030.00;;;;5043306;28;20266;-66
2022/05/31 03:54:35;;;;;;;0.45;0.30;;;20.00;43.80;19.20;101030.00;;;;5045804;28;20037;-66
2022/05/31 03:57:22;;;;;;;1.30;0.40;;;20.00;43.80;19.20;101037.00;;;;5057992;28;20281;-65
2022/05/31 04:00:10;;;;;;;2.72;0.50;;;20.00;43.80;19.20;101034.00;;;;5040204;28;20453;-65
2022/05/31 04:02:56;;;;;;;0.40;0.35;;;20.00;43.70;19.20;101035.00;;;;5031010;28;20566;-66
2022/05/31 04:05:42;;;;;;;1.25;0.63;;;20.00;43.70;19.20;101035.00;;;;5058378;28;20074;-66
2022/05/31 04:08:29;;;;;;;0.52;0.40;;;20.00;43.80;19.20;101030.00;;;;5047360;28;20049;-65
2022/05/31 04:11:15;;;;;;;0.40;0.40;;;20.00;43.80;19.20;101034.00;;;;5056559;28;20067;-65
2022/05/31 04:14:01;;;;;;;0.98;0.40;;;20.00;43.80;19.20;101034.00;;;;5039290;28;20811;-65
2022/05/31 04:16:47;;;;;;;0.73;0.40;;;20.00;43.80;19.20;101033.00;;;;5044619;28;20376;-65
2022/05/31 04:19:34;;;;;;;0.65;0.57;;;20.00;43.70;19.20;101037.00;;;;5047038;28;20418;-66
2022/05/31 04:22:20;;;;;;;1.50;0.40;;;20.00;43.80;19.20;101031.00;;;;5042969;28;20099;-66
2022/05/31 04:25:06;;;;;;;1.20;0.28;;;20.00;43.80;19.20;101031.00;;;;5041362;28;20071;-66
2022/05/31 04:27:52;;;;;;;0.25;0.25;;;20.00;43.80;19.20;101034.00;;;;5042137;28;20510;-65
2022/05/31 04:30:44;;;;;;;0.82;0.30;;;20.00;43.70;19.20;101037.00;;;;5041360;28;20086;-65
2022/05/31 04:33:30;;;;;;;0.82;0.20;;;20.00;43.80;19.20;101027.00;;;;5059014;28;20494;-65
2022/05/31 04:36:18;;;;;;;1.08;0.40;;;20.00;43.70;19.20;101039.00;;;;5044042;28;20083;-66
2022/05/31 04:39:04;;;;;;;0.30;0.30;;;20.00;43.80;19.20;101039.00;;;;5027423;28;20029;-66
2022/05/31 04:41:50;;;;;;;0.43;0.30;;;20.00;43.70;19.20;101035.00;;;;5037936;28;20113;-66
2022/05/31 04:44:37;;;;;;;0.47;0.25;;;20.00;43.70;19.20;101034.00;;;;5044177;28;20708;-66
2022/05/31 04:47:23;;;;;;;0.80;0.38;;;20.00;43.80;19.20;101041.00;;;;5042204;28;20528;-65
2022/05/31 04:50:09;;;;;;;0.73;0.50;;;20.00;43.80;19.20;101049.00;;;;5040455;28;20041;-65
2022/05/31 04:52:55;;;;;;;0.93;0.55;;;20.00;43.80;19.20;101047.00;;;;5043904;28;20056;-65
2022/05/31 04:55:41;;;;;;;0.82;0.30;;;20.00;43.80;19.20;101042.00;;;;5040972;28;20055;-65
2022/05/31 04:58:28;;;;;;;0.65;0.40;;;20.00;43.80;19.20;101043.00;;;;5059792;28;20056;-66
2022/05/31 05:01:14;;;;;;;1.05;0.43;;;20.00;43.80;19.20;101038.00;;;;5040797;28;20453;-66
2022/05/31 05:04:00;;;;;;;0.80;0.43;;;20.00;43.80;19.20;101041.00;;;;5040905;28;20069;-65
2022/05/31 05:06:46;;;;;;;0.90;0.47;;;20.00;43.90;19.20;101037.00;;;;5042167;28;20448;-66
2022/05/31 05:09:32;;;;;;;2.05;0.40;;;20.00;43.90;19.20;101034.00;;;;5039665;28;20107;-65
2022/05/31 05:12:18;;;;;;;0.50;0.32;;;20.00;43.90;19.20;101037.00;;;;5039376;28;20056;-65
2022/05/31 05:15:05;;;;;;;0.55;0.30;;;20.00;43.90;19.20;101032.00;;;;5038167;28;20483;-65
2022/05/31 05:17:51;;;;;;;1.58;0.40;;;20.00;43.90;19.20;101027.00;;;;5026679;28;20120;-65
2022/05/31 05:20:38;;;;;;;1.67;0.22;;;20.00;43.90;19.20;101027.00;;;;5045013;28;20039;-66
2022/05/31 05:23:24;;;;;;;2.20;0.70;;;20.00;44.00;19.20;101030.00;;;;5040833;28;20045;-66
2022/05/31 05:26:11;;;;;;;0.75;0.30;;;20.00;43.90;19.20;101024.00;;;;5044115;28;20052;-66
2022/05/31 05:32:07;;;;;;;1.48;0.40;;;20.00;43.90;19.20;101023.00;;;;5037966;28;20043;-66
2022/05/31 05:34:54;;;;;;;1.50;0.40;;;20.00;43.90;19.20;101023.00;;;;5054131;28;20051;-66
2022/05/31 05:37:40;;;;;;;0.68;0.40;;;20.00;43.90;19.20;101022.00;;;;5056527;28;20135;-66
2022/05/31 05:40:26;;;;;;;1.33;0.55;;;20.00;43.90;19.20;101017.00;;;;5038730;28;20037;-66
2022/05/31 05:43:15;;;;;;;0.60;0.50;;;20.10;44.00;19.30;101017.00;;;;5038882;28;20060;-65
2022/05/31 05:46:01;;;;;;;0.93;0.45;;;20.10;44.10;19.20;101027.00;;;;5043064;28;20044;-65
2022/05/31 05:48:48;;;;;;;0.60;0.40;;;20.10;44.10;19.30;101017.00;;;;5043501;28;20037;-66
2022/05/31 05:51:34;;;;;;;1.02;0.50;;;20.10;44.10;19.30;101016.00;;;;5027474;28;20045;-65
2022/05/31 05:54:20;;;;;;;1.52;0.60;;;20.10;44.10;19.30;101014.00;;;;5042678;28;20048;-65
2022/05/31 05:57:06;;;;;;;4.35;0.90;;;20.10;44.10;19.30;101020.00;;;;5043745;28;20506;-66
2022/05/31 05:59:52;;;;;;;1.50;0.40;;;20.10;44.10;19.30;101014.00;;;;5056800;28;20091;-66
2022/05/31 06:02:39;;;;;;;2.35;0.40;;;20.10;44.10;19.30;101010.00;;;;5047729;28;20051;-66
2022/05/31 06:05:29;;;;;;;1.20;0.57;;;20.10;44.00;19.30;101012.00;;;;5036090;28;20443;-65
2022/05/31 06:08:37;;;;;;;3.72;0.85;;;20.20;44.10;19.30;101015.00;;;;5041330;28;20033;-66
2022/05/31 06:11:33;;;;;;;1.60;0.70;;;20.20;44.10;19.30;101010.00;;;;5055755;28;20298;-65
2022/05/31 06:14:25;;;;;;;1.98;0.40;;;20.20;44.10;19.30;101006.00;;;;5051742;28;20076;-66
2022/05/31 06:17:17;;;;;;;4.55;0.80;;;20.20;44.10;19.30;101010.00;;;;5035162;28;20076;-66
2022/05/31 06:20:06;;;;;;;2.40;1.30;;;20.20;44.10;19.30;101005.00;;;;5058336;28;20048;-65
2022/05/31 06:22:52;;;;;;;3.40;0.77;;;20.20;44.20;19.30;101008.00;;;;5052240;28;20040;-66
2022/05/31 06:25:39;;;;;;;2.63;0.70;;;20.20;44.10;19.40;101012.00;;;;5034786;28;20064;-66
2022/05/31 06:28:25;;;;;;;1.15;0.57;;;20.20;44.40;19.40;101011.00;;;;5045364;28;22061;-66
2022/05/31 06:31:11;;;;;;;1.42;0.50;;;20.20;44.10;19.40;101008.00;;;;5059431;28;20052;-66
2022/05/31 06:33:57;;;;;;;1.70;0.60;;;20.20;44.10;19.40;101014.00;;;;5040437;28;20066;-66
2022/05/31 06:36:43;;;;;;;2.05;0.50;;;20.20;44.20;19.40;101007.00;;;;5045339;28;20048;-66
2022/05/31 06:39:29;;;;;;;0.50;0.35;;;20.30;44.20;19.40;101008.00;;;;5047400;28;20045;-66
2022/05/31 06:42:15;;;;;;;1.00;0.47;;;20.30;44.20;19.40;101013.00;;;;5046346;28;20048;-66
2022/05/31 06:45:01;;;;;;;3.38;0.55;;;20.30;44.20;19.40;101010.00;;;;5045870;28;20040;-65
2022/05/31 06:47:47;;;;;;;1.10;0.60;;;20.30;44.20;19.40;100997.00;;;;5034396;28;20059;-65
2022/05/31 06:50:34;;;;;;;0.73;0.45;;;20.30;44.20;19.40;100995.00;;;;5046348;28;20049;-65
2022/05/31 06:59:12;;;;;;;1.15;0.70;;;20.30;44.20;19.40;100998.00;;;;5049820;28;20039;-66
2022/05/31 07:02:04;;;;;;;1.17;0.45;;;20.30;44.10;19.40;100996.00;;;;5029014;28;20036;-65
2022/05/31 07:04:50;;;;;;;0.60;0.45;;;20.30;44.20;19.40;100989.00;;;;5028611;28;20048;-66
2022/05/31 07:07:36;;;;;;;1.13;0.57;;;20.40;44.20;19.40;100982.00;;;;5045893;28;20118;-65
2022/05/31 07:10:22;;;;;;;1.85;0.50;;;20.40;44.20;19.50;100988.00;;;;5039731;28;20055;-66
2022/05/31 07:13:08;;;;;;;1.75;0.55;;;20.40;44.10;19.50;100988.00;;;;5048595;28;20284;-65
2022/05/31 07:15:54;;;;;;;1.52;0.50;;;20.40;44.10;19.50;100981.00;;;;5041293;28;20041;-65
2022/05/31 07:18:40;;;;;;;0.80;0.60;;;20.40;44.10;19.50;100982.00;;;;5024704;28;20033;-66
2022/05/31 07:21:26;;;;;;;1.73;0.50;;;20.40;44.10;19.50;100996.00;;;;5028427;28;20191;-66
2022/05/31 07:24:12;;;;;;;2.08;0.47;;;20.40;44.10;19.50;100972.00;;;;5040034;28;20473;-66
2022/05/31 07:26:58;;;;;;;1.08;0.63;;;20.40;44.10;19.50;100982.00;;;;5034146;28;20044;-66
2022/05/31 07:29:44;;;;;;;2.80;0.85;;;20.40;44.10;19.50;100979.00;;;;5047371;28;20279;-66
2022/05/31 07:32:30;;;;;;;1.00;0.60;;;20.40;44.10;19.50;100971.00;;;;5048109;28;20037;-66
2022/05/31 07:35:16;;;;;;;1.92;0.60;;;20.40;44.00;19.50;100970.00;;;;5041044;28;20315;-66
2022/05/31 07:38:02;;;;;;;2.45;0.60;;;20.50;44.10;19.50;100980.00;;;;5053867;28;20037;-66
2022/05/31 07:40:50;;;;;;;4.32;0.57;;;20.50;44.00;19.50;100972.00;;;;5046116;28;20025;-65
2022/05/31 07:43:36;;;;;;;1.90;0.60;;;20.40;44.00;19.50;100971.00;;;;5048712;28;20041;-66
2022/05/31 07:46:22;;;;;;;1.85;0.50;;;20.50;44.00;19.50;100972.00;;;;5042822;28;20055;-66
2022/05/31 07:49:08;;;;;;;2.17;0.60;;;20.50;44.00;19.50;100978.00;;;;5037191;28;20556;-65
2022/05/31 07:51:54;;;;;;;1.20;0.60;;;20.50;44.60;19.50;100964.00;;;;5053973;28;20045;-66
2022/05/31 07:54:40;;;;;;;1.15;0.70;;;20.50;43.90;19.50;100979.00;;;;5041823;28;20041;-66
2022/05/31 08:00:31;;;;;;;0.75;0.52;;;20.50;43.90;19.50;100976.00;;;;5044140;28;20463;-66
2022/05/31 08:03:17;;;;;;;2.28;0.65;;;20.50;43.80;19.50;100978.00;;;;5042813;28;20048;-66
2022/05/31 08:06:12;;;;;;;1.58;0.50;;;20.50;43.80;19.50;100977.00;;;;5044288;28;20048;-66
2022/05/31 08:08:58;;;;;;;3.15;0.93;;;20.50;43.80;19.50;100976.00;;;;5053682;28;20048;-66
2022/05/31 08:11:44;;;;;;;1.42;0.77;;;20.50;43.70;19.60;100971.00;;;;5048037;28;20049;-66
2022/05/31 08:14:30;;;;;;;0.75;0.70;;;20.50;43.70;19.60;100967.00;;;;5041433;28;20160;-66
2022/05/31 08:17:17;;;;;;;1.52;0.85;;;20.50;43.70;19.60;100970.00;;;;5047408;28;20049;-66
2022/05/31 08:20:06;;;;;;;1.70;0.70;;;20.50;43.70;19.60;100971.00;;;;5046512;28;20045;-66
2022/05/31 08:22:52;;;;;;;1.98;0.70;;;20.50;43.60;19.60;100970.00;;;;5038529;28;20107;-65
2022/05/31 08:25:38;;;;;;;1.00;0.80;;;20.50;43.60;19.60;100977.00;;;;5053695;28;20041;-65
2022/05/31 08:28:24;;;;;;;2.55;0.77;;;20.50;43.50;19.60;100979.00;;;;5043525;28;20060;-66
2022/05/31 08:31:11;;;;;;;4.88;0.90;;;20.50;43.50;19.60;100966.00;;;;5050289;28;20033;-66
2022/05/31 08:33:58;;;;;;;1.57;0.80;;;20.50;43.50;19.60;100967.00;;;;5041717;28;20071;-66
2022/05/31 08:36:44;;;;;;;3.20;0.90;;;20.50;43.40;19.60;100967.00;;;;5047943;28;20040;-66
2022/05/31 08:39:30;;;;;;;1.60;0.88;;;20.50;43.30;19.60;100975.00;;;;5048889;28;20045;-66
2022/05/31 08:42:48;;;;;;;2.13;0.80;;;20.50;43.20;19.60;100973.00;;;;5045463;28;20049;-66
2022/05/31 08:45:41;;;;;;;3.03;0.80;;;20.50;43.10;19.60;100973.00;;;;5042787;28;20505;-65
2022/05/31 08:48:33;;;;;;;2.70;0.90;;;20.50;43.00;19.60;100974.00;;;;5042313;28;20049;-66
2022/05/31 08:57:51;;;;;;;0.68;0.68;;;20.50;43.10;19.60;100974.00;;;;5038981;28;20055;-65
2022/05/31 09:00:40;;;;;;;3.35;1.02;;;20.50;43.10;19.60;100967.00;;;;5044089;28;20041;-66
2022/05/31 09:03:42;;;;;;;1.02;0.90;;;20.50;43.10;19.60;100964.00;;;;5041362;28;20062;-66
2022/05/31 09:06:33;;;;;;;2.08;1.00;;;20.50;43.20;19.60;100975.00;;;;5054694;28;20516;-66
2022/05/31 09:09:27;;;;;;;1.55;0.82;;;20.50;43.10;19.60;100963.00;;;;5042184;28;20068;-66
2022/05/31 09:12:28;;;;;;;2.63;0.95;;;20.50;43.00;19.60;100962.00;;;;5030014;28;20677;-66
2022/05/31 09:15:23;;;;;;;2.50;0.80;;;20.50;43.00;19.60;100964.00;;;;5042950;28;20044;-65
2022/05/31 09:18:38;;;;;;;3.17;0.90;;;20.50;43.00;19.60;100969.00;;;;5033286;28;20764;-66
2022/05/31 09:21:41;;;;;;;1.83;1.00;;;20.50;43.00;19.60;100976.00;;;;5040494;28;20041;-66
2022/05/31 09:24:27;;;;;;;2.10;0.80;;;20.50;42.90;19.50;100960.00;;;;5029540;28;20048;-66
2022/05/31 09:27:44;;;;;;;1.88;1.10;;;20.50;43.00;19.60;100973.00;;;;5033879;28;20044;-66
2022/05/31 09:30:39;;;;;;;1.27;1.02;;;20.50;43.00;19.60;100966.00;;;;5029147;28;20441;-66
2022/05/31 09:33:39;;;;;;;2.42;1.10;;;20.50;43.00;19.60;100967.00;;;;5027577;28;20040;-66
2022/05/31 09:36:37;;;;;;;1.38;0.80;;;20.60;43.10;19.60;100963.00;;;;5028006;28;20638;-66
2022/05/31 09:39:54;;;;;;;2.55;1.23;;;20.60;43.20;19.60;100966.00;;;;5029932;28;20073;-65
2022/05/31 09:43:02;;;;;;;1.75;1.15;;;20.50;43.10;19.60;100967.00;;;;5042988;28;20069;-66
2022/05/31 09:46:03;;;;;;;1.45;0.90;;;20.50;43.20;19.60;100971.00;;;;5047674;28;20044;-66
2022/05/31 09:48:51;;;;;;;3.55;1.33;;;20.50;43.10;19.50;100964.00;;;;5028313;28;20040;-66
2022/05/31 09:51:41;;;;;;;5.18;1.85;;;20.50;43.20;19.60;100967.00;;;;5045923;28;20072;-66
2022/05/31 09:57:31;;;;;;;2.90;0.80;;;20.60;43.20;19.60;100961.00;;;;5043325;28;20128;-66
2022/05/31 10:00:20;;;;;;;2.90;0.90;;;20.50;43.10;19.60;100963.00;;;;5042322;28;20037;-65
2022/05/31 10:03:11;;;;;;;4.80;1.02;;;20.50;43.10;19.60;100959.00;;;;5060539;28;20049;-66
2022/05/31 10:06:12;;;;;;;3.53;1.00;;;20.50;43.20;19.60;100956.00;;;;5041479;28;20041;-66
2022/05/31 10:09:17;;;;;;;5.63;1.23;;;20.50;43.10;19.60;100964.00;;;;5076431;28;20119;-66
2022/05/31 10:12:27;;;;;;;1.10;0.80;;;20.60;43.20;19.60;100953.00;;;;5052449;28;20131;-66
2022/05/31 10:15:13;;;;;;;3.38;1.77;;;20.50;43.10;19.60;100953.00;;;;5062872;28;20410;-66
2022/05/31 10:18:05;;;;;;;3.17;1.08;;;20.60;43.10;19.60;100949.00;;;;5065996;28;20037;-66
2022/05/31 10:21:03;;;;;;;4.13;1.33;;;20.60;43.20;19.60;100936.00;;;;5063876;28;20048;-66
2022/05/31 10:23:49;;;;;;;3.25;0.88;;;20.50;43.10;19.60;100936.00;;;;5051060;28;20501;-66
2022/05/31 10:26:38;;;;;;;2.00;1.08;;;20.50;43.10;19.60;100935.00;;;;5071175;28;20051;-66
2022/05/31 10:29:33;;;;;;;2.70;1.20;;;20.60;43.20;19.60;100950.00;;;;5074718;28;20051;-66
2022/05/31 10:32:34;;;;;;;2.80;1.15;;;20.60;43.20;19.60;100949.00;;;;5066025;28;20372;-66
2022/05/31 10:35:29;;;;;;;2.25;0.80;;;20.60;43.30;19.60;100952.00;;;;5075951;28;20052;-65
2022/05/31 10:38:29;;;;;;;1.88;0.90;;;20.60;43.30;19.60;100944.00;;;;5033698;28;20402;-66
2022/05/31 10:41:29;;;;;;;5.32;1.38;;;20.60;43.30;19.60;100945.00;;;;5045438;28;20045;-66
2022/05/31 10:44:25;;;;;;;4.13;1.45;;;20.60;43.30;19.60;100947.00;;;;5042872;28;20099;-66
2022/05/31 10:47:16;;;;;;;2.00;0.98;;;20.60;43.30;19.60;100945.00;;;;5044461;28;20429;-66
2022/05/31 10:50:04;;;;;;;3.53;1.48;;;20.60;43.30;19.60;100946.00;;;;5041686;28;20063;-66
2022/05/31 10:53:22;;;;;;;2.22;1.00;;;20.60;43.30;19.60;100938.00;;;;5059771;28;20263;-66
2022/05/31 10:56:16;;;;;;;3.70;1.00;;;20.50;43.30;19.60;100934.00;;;;5046601;28;20041;-65
2022/05/31 10:59:17;;;;;;;1.55;0.90;;;20.60;43.30;19.60;100933.00;;;;5063420;28;20032;-66
2022/05/31 11:02:42;;;;;;;1.73;1.00;;;20.60;43.30;19.60;100935.00;;;;5040773;28;20041;-66
2022/05/31 11:06:00;;;;;;;2.28;1.30;;;20.60;43.40;19.60;100933.00;;;;5074821;28;20079;-66
2022/05/31 11:13:19;;;;;;;2.50;1.27;;;20.60;43.40;19.60;100924.00;;;;5058752;28;20037;-66
2022/05/31 11:16:29;;;;;;;2.60;1.00;;;20.60;43.40;19.60;100921.00;;;;5046448;28;20048;-65
2022/05/31 11:19:18;;;;;;;2.42;1.45;;;20.60;43.40;19.60;100921.00;;;;5044523;28;20116;-66
2022/05/31 11:23:02;;;;;;;2.20;1.17;;;20.60;43.40;19.60;100917.00;;;;5059073;28;20035;-65
2022/05/31 11:26:16;;;;;;;2.28;1.23;;;20.60;43.40;19.60;100916.00;;;;5053610;28;20285;-65
2022/05/31 11:29:33;;;;;;;2.65;1.30;;;20.60;43.30;19.60;100916.00;;;;5040586;28;20050;-65
2022/05/31 11:32:48;;;;;;;2.22;1.50;;;20.60;43.30;19.60;100907.00;;;;5062133;28;20032;-66
2022/05/31 11:35:56;;;;;;;2.05;1.13;;;20.60;43.20;19.60;100909.00;;;;5057048;28;20048;-65
2022/05/31 11:39:04;;;;;;;3.42;1.30;;;20.60;43.20;19.70;100906.00;;;;5047664;28;20064;-66
2022/05/31 11:42:24;;;;;;;2.42;1.35;;;20.60;43.10;19.70;100907.00;;;;5046013;28;20049;-66
2022/05/31 11:45:42;;;;;;;2.67;1.10;;;20.60;43.10;19.70;100903.00;;;;5059699;28;20087;-65
2022/05/31 11:48:50;;;;;;;2.20;1.10;;;20.70;43.00;19.70;100911.00;;;;5055160;28;20041;-66
2022/05/31 11:51:52;;;;;;;2.05;1.30;;;20.70;43.00;19.70;100907.00;;;;5057540;28;20041;-66
2022/05/31 11:55:30;;;;;;;1.20;1.10;;;20.70;43.00;19.70;100908.00;;;;5048539;28;20049;-65
2022/05/31 11:58:47;;;;;;;2.25;1.20;;;20.70;42.90;19.70;100908.00;;;;5060165;28;20047;-66
2022/05/31 12:01:51;;;;;;;2.53;1.20;;;20.70;42.90;19.70;100902.00;;;;5027793;28;20044;-66
2022/05/31 12:04:46;;;;;;;1.92;0.93;;;20.70;42.80;19.70;100898.00;;;;5041613;28;20506;-65
2022/05/31 12:07:56;;;;;;;2.83;1.60;;;20.70;42.70;19.70;100909.00;;;;5045424;28;20040;-65
2022/05/31 12:10:48;;;;;;;2.50;1.40;;;20.80;42.60;19.70;100898.00;;;;5051439;28;20047;-65
2022/05/31 12:13:40;;;;;;;2.67;1.10;;;20.80;42.60;19.70;100894.00;;;;5056330;28;20048;-66
2022/05/31 12:16:26;;;;;;;1.98;1.02;;;20.80;42.40;19.70;100892.00;;;;5066086;28;20493;-66
2022/05/31 12:19:29;;;;;;;3.40;1.20;;;20.80;42.50;19.70;100886.00;;;;5082766;28;20062;-65
2022/05/31 12:22:47;;;;;;;1.52;1.42;;;20.80;42.40;19.80;100880.00;;;;5054747;28;20325;-66
2022/05/31 12:25:40;;;;;;;5.32;1.45;;;20.80;42.40;19.80;100881.00;;;;5073441;28;20041;-65
2022/05/31 12:28:37;;;;;;;2.28;1.10;;;20.80;42.30;19.80;100883.00;;;;5054079;28;20485;-66
2022/05/31 12:31:29;;;;;;;4.88;1.17;;;20.80;42.20;19.80;100877.00;;;;5063095;28;20032;-65
2022/05/31 12:34:21;;;;;;;1.92;0.93;;;20.80;42.20;19.80;100873.00;;;;5068020;28;20182;-65
2022/05/31 12:37:12;;;;;;;2.25;1.20;;;20.80;42.20;19.80;100875.00;;;;5062986;28;20044;-65
2022/05/31 12:40:47;;;;;;;2.13;1.20;;;20.80;42.10;19.80;100872.00;;;;5064058;28;20033;-65
2022/05/31 12:43:32;;;;;;;1.35;1.10;;;20.80;42.00;19.80;100868.00;;;;5062707;28;20099;-65
2022/05/31 12:46:47;;;;;;;2.00;1.13;;;20.90;42.10;19.80;100860.00;;;;5063057;28;20114;-65
2022/05/31 12:49:33;;;;;;;1.48;1.13;;;20.90;41.90;19.80;100859.00;;;;5067850;28;20118;-66
2022/05/31 12:52:53;;;;;;;3.20;1.25;;;20.90;41.80;19.80;100861.00;;;;5052237;28;20043;-65
2022/05/31 12:55:39;;;;;;;2.95;1.20;;;20.90;41.70;19.80;100869.00;;;;5079561;28;20039;-66
2022/05/31 12:58:33;;;;;;;2.15;1.30;;;20.90;41.60;19.80;100864.00;;;;5064873;28;20679;-65
2022/05/31 13:01:25;;;;;;;2.53;1.30;;;20.90;41.70;19.80;100872.00;;;;5064507;28;20068;-65
2022/05/31 13:04:26;;;;;;;1.48;1.20;;;20.90;41.50;19.80;100864.00;;;;5064443;28;20037;-65
2022/05/31 13:07:14;;;;;;;2.03;1.40;;;20.90;41.50;19.80;100869.00;;;;5047912;28;20048;-65